sensor_id;sensor_type;location;lat;lon;timestamp;P1;durP1;ratioP1;P2;durP2;ratioP2
12906;SDS011;6521;50.498;8.474;2022-07-18T00:01:24;3.20;;;1.75;;
12906;SDS011;6521;50.498;8.474;2022-07-18T00:03:54;1.52;;;1.35;;
12906;SDS011;6521;50.498;8.474;2022-07-18T00:06:25;2.38;;;1.45;;
12906;SDS011;6521;50.498;8.474;2022-07-18T00:08:55;1.38;;;1.20;;
12906;SDS011;6521;50.498;8.474;2022-07-18T00:11:26;2.58;;;1.23;;
12906;SDS011;6521;50.498;8.474;2022-07-18T00:13:57;2.60;;;1.50;;
12906;SDS011;6521;50.498;8.474;2022-07-18T00:16:28;3.30;;;1.52;;
12906;SDS011;6521;50.498;8.474;2022-07-18T00:18:59;1.65;;;1.42;;
12906;SDS011;6521;50.498;8.474;2022-07-18T00:21:30;2.63;;;1.40;;
12906;SDS011;6521;50.498;8.474;2022-07-18T00:24:01;2.38;;;1.50;;
12906;SDS011;6521;50.498;8.474;2022-07-18T00:26:33;2.88;;;1.42;;
12906;SDS011;6521;50.498;8.474;2022-07-18T00:29:04;2.00;;;1.33;;
12906;SDS011;6521;50.498;8.474;2022-07-18T00:31:35;2.22;;;1.35;;
12906;SDS011;6521;50.498;8.474;2022-07-18T00:34:06;1.77;;;1.30;;
12906;SDS011;6521;50.498;8.474;2022-07-18T00:36:36;3.70;;;1.27;;
12906;SDS011;6521;50.498;8.474;2022-07-18T00:39:07;2.50;;;1.38;;
12906;SDS011;6521;50.498;8.474;2022-07-18T00:41:38;2.80;;;1.60;;
12906;SDS011;6521;50.498;8.474;2022-07-18T00:44:15;2.28;;;1.40;;
12906;SDS011;6521;50.498;8.474;2022-07-18T00:46:50;4.40;;;1.20;;
12906;SDS011;6521;50.498;8.474;2022-07-18T00:49:22;2.03;;;1.30;;
12906;SDS011;6521;50.498;8.474;2022-07-18T00:51:53;2.17;;;1.40;;
12906;SDS011;6521;50.498;8.474;2022-07-18T00:54:24;1.63;;;1.50;;
12906;SDS011;6521;50.498;8.474;2022-07-18T00:56:56;5.28;;;1.63;;
12906;SDS011;6521;50.498;8.474;2022-07-18T00:59:26;2.78;;;1.58;;
12906;SDS011;6521;50.498;8.474;2022-07-18T01:02:18;2.33;;;1.52;;
12906;SDS011;6521;50.498;8.474;2022-07-18T01:04:49;2.13;;;1.45;;
12906;SDS011;6521;50.498;8.474;2022-07-18T01:07:20;3.53;;;1.30;;
12906;SDS011;6521;50.498;8.474;2022-07-18T01:09:50;3.72;;;1.50;;
12906;SDS011;6521;50.498;8.474;2022-07-18T01:12:21;2.15;;;1.48;;
12906;SDS011;6521;50.498;8.474;2022-07-18T01:14:52;3.90;;;1.40;;
12906;SDS011;6521;50.498;8.474;2022-07-18T01:17:23;1.80;;;1.35;;
12906;SDS011;6521;50.498;8.474;2022-07-18T01:19:54;1.77;;;1.30;;
12906;SDS011;6521;50.498;8.474;2022-07-18T01:22:24;1.33;;;1.20;;
12906;SDS011;6521;50.498;8.474;2022-07-18T01:24:55;2.63;;;1.60;;
12906;SDS011;6521;50.498;8.474;2022-07-18T01:27:26;4.40;;;1.63;;
12906;SDS011;6521;50.498;8.474;2022-07-18T01:29:56;1.85;;;1.35;;
12906;SDS011;6521;50.498;8.474;2022-07-18T01:32:27;2.70;;;1.40;;
12906;SDS011;6521;50.498;8.474;2022-07-18T01:34:58;4.43;;;1.55;;
12906;SDS011;6521;50.498;8.474;2022-07-18T01:37:28;3.33;;;1.20;;
12906;SDS011;6521;50.498;8.474;2022-07-18T01:39:59;3.00;;;1.40;;
12906;SDS011;6521;50.498;8.474;2022-07-18T01:42:30;3.70;;;1.65;;
12906;SDS011;6521;50.498;8.474;2022-07-18T01:45:00;2.22;;;1.42;;
12906;SDS011;6521;50.498;8.474;2022-07-18T01:47:31;2.65;;;1.48;;
12906;SDS011;6521;50.498;8.474;2022-07-18T01:50:01;2.17;;;1.15;;
12906;SDS011;6521;50.498;8.474;2022-07-18T01:52:32;2.58;;;1.30;;
12906;SDS011;6521;50.498;8.474;2022-07-18T01:55:03;3.40;;;1.67;;
12906;SDS011;6521;50.498;8.474;2022-07-18T01:57:36;1.98;;;1.33;;
12906;SDS011;6521;50.498;8.474;2022-07-18T02:00:08;5.13;;;1.52;;
12906;SDS011;6521;50.498;8.474;2022-07-18T02:02:41;2.25;;;1.38;;
12906;SDS011;6521;50.498;8.474;2022-07-18T02:05:12;2.35;;;1.45;;
12906;SDS011;6521;50.498;8.474;2022-07-18T02:07:43;5.68;;;1.50;;
12906;SDS011;6521;50.498;8.474;2022-07-18T02:10:17;3.17;;;1.10;;
12906;SDS011;6521;50.498;8.474;2022-07-18T02:12:49;1.42;;;1.27;;
12906;SDS011;6521;50.498;8.474;2022-07-18T02:15:20;3.00;;;1.25;;
12906;SDS011;6521;50.498;8.474;2022-07-18T02:17:50;2.03;;;1.33;;
12906;SDS011;6521;50.498;8.474;2022-07-18T02:20:21;2.15;;;1.48;;
12906;SDS011;6521;50.498;8.474;2022-07-18T02:22:52;1.42;;;1.20;;
12906;SDS011;6521;50.498;8.474;2022-07-18T02:25:23;1.30;;;0.98;;
12906;SDS011;6521;50.498;8.474;2022-07-18T02:27:53;4.00;;;1.40;;
12906;SDS011;6521;50.498;8.474;2022-07-18T02:30:24;1.48;;;1.15;;
12906;SDS011;6521;50.498;8.474;2022-07-18T02:32:55;5.95;;;1.50;;
12906;SDS011;6521;50.498;8.474;2022-07-18T02:35:26;1.73;;;1.30;;
12906;SDS011;6521;50.498;8.474;2022-07-18T02:37:56;4.22;;;1.50;;
12906;SDS011;6521;50.498;8.474;2022-07-18T02:40:27;2.42;;;1.50;;
12906;SDS011;6521;50.498;8.474;2022-07-18T02:42:58;1.60;;;1.45;;
12906;SDS011;6521;50.498;8.474;2022-07-18T02:45:28;4.20;;;1.70;;
12906;SDS011;6521;50.498;8.474;2022-07-18T02:47:59;2.60;;;1.75;;
12906;SDS011;6521;50.498;8.474;2022-07-18T02:50:30;1.90;;;1.60;;
12906;SDS011;6521;50.498;8.474;2022-07-18T02:53:01;1.80;;;1.70;;
12906;SDS011;6521;50.498;8.474;2022-07-18T02:55:31;2.70;;;1.75;;
12906;SDS011;6521;50.498;8.474;2022-07-18T02:58:02;3.60;;;1.75;;
12906;SDS011;6521;50.498;8.474;2022-07-18T03:00:33;2.25;;;1.60;;
12906;SDS011;6521;50.498;8.474;2022-07-18T03:03:04;2.45;;;1.83;;
12906;SDS011;6521;50.498;8.474;2022-07-18T03:05:34;2.03;;;1.45;;
12906;SDS011;6521;50.498;8.474;2022-07-18T03:08:05;2.65;;;1.60;;
12906;SDS011;6521;50.498;8.474;2022-07-18T03:10:35;1.30;;;1.20;;
12906;SDS011;6521;50.498;8.474;2022-07-18T03:13:06;5.15;;;1.55;;
12906;SDS011;6521;50.498;8.474;2022-07-18T03:15:38;3.90;;;1.60;;
12906;SDS011;6521;50.498;8.474;2022-07-18T03:18:10;2.72;;;1.30;;
12906;SDS011;6521;50.498;8.474;2022-07-18T03:20:41;3.83;;;1.60;;
12906;SDS011;6521;50.498;8.474;2022-07-18T03:23:11;1.40;;;1.30;;
12906;SDS011;6521;50.498;8.474;2022-07-18T03:25:42;5.65;;;1.98;;
12906;SDS011;6521;50.498;8.474;2022-07-18T03:28:12;2.05;;;1.30;;
12906;SDS011;6521;50.498;8.474;2022-07-18T03:30:44;3.90;;;1.52;;
12906;SDS011;6521;50.498;8.474;2022-07-18T03:33:15;2.95;;;1.30;;
12906;SDS011;6521;50.498;8.474;2022-07-18T03:35:45;3.10;;;1.55;;
12906;SDS011;6521;50.498;8.474;2022-07-18T03:38:16;4.93;;;2.05;;
12906;SDS011;6521;50.498;8.474;2022-07-18T03:40:47;4.18;;;1.50;;
12906;SDS011;6521;50.498;8.474;2022-07-18T03:43:17;2.33;;;1.50;;
12906;SDS011;6521;50.498;8.474;2022-07-18T03:45:48;4.70;;;1.58;;
12906;SDS011;6521;50.498;8.474;2022-07-18T03:48:19;3.45;;;1.38;;
12906;SDS011;6521;50.498;8.474;2022-07-18T03:50:49;3.40;;;1.52;;
12906;SDS011;6521;50.498;8.474;2022-07-18T03:53:20;4.43;;;2.00;;
12906;SDS011;6521;50.498;8.474;2022-07-18T03:55:51;2.60;;;1.80;;
12906;SDS011;6521;50.498;8.474;2022-07-18T03:58:22;2.30;;;1.60;;
12906;SDS011;6521;50.498;8.474;2022-07-18T04:00:52;5.38;;;1.50;;
12906;SDS011;6521;50.498;8.474;2022-07-18T04:03:23;3.95;;;1.80;;
12906;SDS011;6521;50.498;8.474;2022-07-18T04:05:54;4.10;;;1.83;;
12906;SDS011;6521;50.498;8.474;2022-07-18T04:08:24;2.85;;;1.60;;
12906;SDS011;6521;50.498;8.474;2022-07-18T04:10:55;4.97;;;1.80;;
12906;SDS011;6521;50.498;8.474;2022-07-18T04:13:26;4.43;;;1.83;;
12906;SDS011;6521;50.498;8.474;2022-07-18T04:15:56;3.28;;;1.73;;
12906;SDS011;6521;50.498;8.474;2022-07-18T04:18:27;2.72;;;1.90;;
12906;SDS011;6521;50.498;8.474;2022-07-18T04:20:58;3.38;;;1.63;;
12906;SDS011;6521;50.498;8.474;2022-07-18T04:23:28;4.15;;;2.05;;
12906;SDS011;6521;50.498;8.474;2022-07-18T04:25:59;6.47;;;2.00;;
12906;SDS011;6521;50.498;8.474;2022-07-18T04:28:30;7.47;;;1.85;;
12906;SDS011;6521;50.498;8.474;2022-07-18T04:31:00;3.13;;;1.60;;
12906;SDS011;6521;50.498;8.474;2022-07-18T04:33:31;4.70;;;1.73;;
12906;SDS011;6521;50.498;8.474;2022-07-18T04:36:02;2.72;;;2.00;;
12906;SDS011;6521;50.498;8.474;2022-07-18T04:38:33;4.22;;;2.20;;
12906;SDS011;6521;50.498;8.474;2022-07-18T04:41:07;3.92;;;2.20;;
12906;SDS011;6521;50.498;8.474;2022-07-18T04:43:38;5.85;;;2.50;;
12906;SDS011;6521;50.498;8.474;2022-07-18T04:46:08;2.58;;;1.98;;
12906;SDS011;6521;50.498;8.474;2022-07-18T04:48:39;3.50;;;1.92;;
12906;SDS011;6521;50.498;8.474;2022-07-18T04:51:10;3.88;;;2.70;;
12906;SDS011;6521;50.498;8.474;2022-07-18T04:53:40;6.20;;;1.80;;
12906;SDS011;6521;50.498;8.474;2022-07-18T04:56:11;3.97;;;1.67;;
12906;SDS011;6521;50.498;8.474;2022-07-18T04:58:42;2.97;;;1.73;;
12906;SDS011;6521;50.498;8.474;2022-07-18T05:01:12;10.32;;;1.90;;
12906;SDS011;6521;50.498;8.474;2022-07-18T05:03:43;20.58;;;2.97;;
12906;SDS011;6521;50.498;8.474;2022-07-18T05:06:14;9.35;;;2.35;;
12906;SDS011;6521;50.498;8.474;2022-07-18T05:08:45;12.70;;;2.70;;
12906;SDS011;6521;50.498;8.474;2022-07-18T05:11:15;5.20;;;2.20;;
12906;SDS011;6521;50.498;8.474;2022-07-18T05:13:46;1.83;;;1.63;;
12906;SDS011;6521;50.498;8.474;2022-07-18T05:16:16;5.93;;;2.20;;
12906;SDS011;6521;50.498;8.474;2022-07-18T05:18:47;10.77;;;2.30;;
12906;SDS011;6521;50.498;8.474;2022-07-18T05:21:18;5.10;;;1.88;;
12906;SDS011;6521;50.498;8.474;2022-07-18T05:23:48;5.63;;;1.95;;
12906;SDS011;6521;50.498;8.474;2022-07-18T05:26:19;7.15;;;1.60;;
12906;SDS011;6521;50.498;8.474;2022-07-18T05:28:50;7.78;;;2.00;;
12906;SDS011;6521;50.498;8.474;2022-07-18T05:31:20;6.32;;;2.30;;
12906;SDS011;6521;50.498;8.474;2022-07-18T05:33:51;13.85;;;2.72;;
12906;SDS011;6521;50.498;8.474;2022-07-18T05:36:22;10.00;;;2.00;;
12906;SDS011;6521;50.498;8.474;2022-07-18T05:38:52;36.72;;;3.42;;
12906;SDS011;6521;50.498;8.474;2022-07-18T05:41:23;46.67;;;3.45;;
12906;SDS011;6521;50.498;8.474;2022-07-18T05:43:53;56.13;;;4.68;;
12906;SDS011;6521;50.498;8.474;2022-07-18T05:46:24;23.02;;;2.92;;
12906;SDS011;6521;50.498;8.474;2022-07-18T05:48:55;41.90;;;3.80;;
12906;SDS011;6521;50.498;8.474;2022-07-18T05:51:25;25.20;;;3.80;;
12906;SDS011;6521;50.498;8.474;2022-07-18T05:53:56;27.20;;;3.47;;
12906;SDS011;6521;50.498;8.474;2022-07-18T05:56:27;28.73;;;2.78;;
12906;SDS011;6521;50.498;8.474;2022-07-18T05:58:57;36.78;;;3.45;;
12906;SDS011;6521;50.498;8.474;2022-07-18T06:01:28;10.00;;;2.10;;
12906;SDS011;6521;50.498;8.474;2022-07-18T06:03:59;3.00;;;1.80;;
12906;SDS011;6521;50.498;8.474;2022-07-18T06:06:29;8.38;;;1.58;;
12906;SDS011;6521;50.498;8.474;2022-07-18T06:09:00;4.43;;;1.80;;
12906;SDS011;6521;50.498;8.474;2022-07-18T06:11:31;3.65;;;1.73;;
12906;SDS011;6521;50.498;8.474;2022-07-18T06:14:02;2.35;;;1.30;;
12906;SDS011;6521;50.498;8.474;2022-07-18T06:16:33;5.80;;;1.58;;
12906;SDS011;6521;50.498;8.474;2022-07-18T06:19:04;34.13;;;3.97;;
12906;SDS011;6521;50.498;8.474;2022-07-18T06:21:34;6.93;;;1.67;;
12906;SDS011;6521;50.498;8.474;2022-07-18T06:24:05;3.13;;;1.40;;
12906;SDS011;6521;50.498;8.474;2022-07-18T06:26:36;3.30;;;1.52;;
12906;SDS011;6521;50.498;8.474;2022-07-18T06:29:06;2.25;;;1.30;;
12906;SDS011;6521;50.498;8.474;2022-07-18T06:31:37;3.08;;;1.60;;
12906;SDS011;6521;50.498;8.474;2022-07-18T06:34:08;5.20;;;1.80;;
12906;SDS011;6521;50.498;8.474;2022-07-18T06:36:38;4.43;;;1.58;;
12906;SDS011;6521;50.498;8.474;2022-07-18T06:39:09;6.25;;;1.42;;
12906;SDS011;6521;50.498;8.474;2022-07-18T06:41:41;4.70;;;1.67;;
12906;SDS011;6521;50.498;8.474;2022-07-18T06:44:17;3.95;;;1.95;;
12906;SDS011;6521;50.498;8.474;2022-07-18T06:46:47;9.23;;;2.05;;
12906;SDS011;6521;50.498;8.474;2022-07-18T06:49:18;21.80;;;2.80;;
12906;SDS011;6521;50.498;8.474;2022-07-18T06:51:49;2.92;;;1.85;;
12906;SDS011;6521;50.498;8.474;2022-07-18T06:54:20;8.88;;;1.80;;
12906;SDS011;6521;50.498;8.474;2022-07-18T06:56:56;5.80;;;1.88;;
12906;SDS011;6521;50.498;8.474;2022-07-18T06:59:27;4.63;;;1.90;;
12906;SDS011;6521;50.498;8.474;2022-07-18T07:01:57;6.18;;;1.75;;
12906;SDS011;6521;50.498;8.474;2022-07-18T07:04:28;9.10;;;2.10;;
12906;SDS011;6521;50.498;8.474;2022-07-18T07:06:59;4.35;;;1.70;;
12906;SDS011;6521;50.498;8.474;2022-07-18T07:09:30;3.47;;;1.90;;
12906;SDS011;6521;50.498;8.474;2022-07-18T07:12:00;2.88;;;1.45;;
12906;SDS011;6521;50.498;8.474;2022-07-18T07:14:31;3.28;;;1.77;;
12906;SDS011;6521;50.498;8.474;2022-07-18T07:17:02;3.85;;;1.70;;
12906;SDS011;6521;50.498;8.474;2022-07-18T07:19:33;2.83;;;1.73;;
12906;SDS011;6521;50.498;8.474;2022-07-18T07:22:04;4.05;;;1.95;;
12906;SDS011;6521;50.498;8.474;2022-07-18T07:24:35;2.97;;;1.58;;
12906;SDS011;6521;50.498;8.474;2022-07-18T07:27:08;10.60;;;1.88;;
12906;SDS011;6521;50.498;8.474;2022-07-18T07:29:39;4.13;;;1.95;;
12906;SDS011;6521;50.498;8.474;2022-07-18T07:32:09;3.08;;;1.60;;
12906;SDS011;6521;50.498;8.474;2022-07-18T07:34:40;4.28;;;1.85;;
12906;SDS011;6521;50.498;8.474;2022-07-18T07:37:11;4.80;;;1.63;;
12906;SDS011;6521;50.498;8.474;2022-07-18T07:39:41;2.72;;;1.30;;
12906;SDS011;6521;50.498;8.474;2022-07-18T07:42:12;4.13;;;1.52;;
12906;SDS011;6521;50.498;8.474;2022-07-18T07:44:43;4.93;;;1.88;;
12906;SDS011;6521;50.498;8.474;2022-07-18T07:47:13;3.05;;;1.60;;
12906;SDS011;6521;50.498;8.474;2022-07-18T07:49:44;6.15;;;1.85;;
12906;SDS011;6521;50.498;8.474;2022-07-18T07:52:14;5.55;;;2.00;;
12906;SDS011;6521;50.498;8.474;2022-07-18T07:54:47;5.25;;;1.90;;
12906;SDS011;6521;50.498;8.474;2022-07-18T07:57:17;3.78;;;1.70;;
12906;SDS011;6521;50.498;8.474;2022-07-18T07:59:48;2.47;;;1.65;;
12906;SDS011;6521;50.498;8.474;2022-07-18T08:02:19;6.75;;;2.03;;
12906;SDS011;6521;50.498;8.474;2022-07-18T08:04:49;8.05;;;2.08;;
12906;SDS011;6521;50.498;8.474;2022-07-18T08:07:20;4.25;;;2.20;;
12906;SDS011;6521;50.498;8.474;2022-07-18T08:09:51;8.23;;;2.15;;
12906;SDS011;6521;50.498;8.474;2022-07-18T08:12:21;8.18;;;2.10;;
12906;SDS011;6521;50.498;8.474;2022-07-18T08:14:52;3.60;;;1.50;;
12906;SDS011;6521;50.498;8.474;2022-07-18T08:17:23;5.53;;;2.35;;
12906;SDS011;6521;50.498;8.474;2022-07-18T08:19:54;6.72;;;1.70;;
12906;SDS011;6521;50.498;8.474;2022-07-18T08:22:24;3.22;;;1.65;;
12906;SDS011;6521;50.498;8.474;2022-07-18T08:24:55;7.05;;;1.80;;
12906;SDS011;6521;50.498;8.474;2022-07-18T08:27:25;3.38;;;1.67;;
12906;SDS011;6521;50.498;8.474;2022-07-18T08:29:56;5.35;;;2.00;;
12906;SDS011;6521;50.498;8.474;2022-07-18T08:32:26;6.10;;;1.90;;
12906;SDS011;6521;50.498;8.474;2022-07-18T08:34:57;6.50;;;1.80;;
12906;SDS011;6521;50.498;8.474;2022-07-18T08:37:28;3.17;;;1.77;;
12906;SDS011;6521;50.498;8.474;2022-07-18T08:39:58;9.15;;;2.08;;
12906;SDS011;6521;50.498;8.474;2022-07-18T08:42:29;5.82;;;1.85;;
12906;SDS011;6521;50.498;8.474;2022-07-18T08:45:03;5.68;;;1.50;;
12906;SDS011;6521;50.498;8.474;2022-07-18T08:47:34;5.50;;;1.50;;
12906;SDS011;6521;50.498;8.474;2022-07-18T08:50:05;7.30;;;1.88;;
12906;SDS011;6521;50.498;8.474;2022-07-18T08:52:36;2.83;;;1.67;;
12906;SDS011;6521;50.498;8.474;2022-07-18T08:55:09;5.03;;;1.80;;
12906;SDS011;6521;50.498;8.474;2022-07-18T08:57:41;2.65;;;1.65;;
12906;SDS011;6521;50.498;8.474;2022-07-18T09:00:12;3.35;;;1.42;;
12906;SDS011;6521;50.498;8.474;2022-07-18T09:02:43;5.80;;;2.13;;
12906;SDS011;6521;50.498;8.474;2022-07-18T09:05:18;8.52;;;1.70;;
12906;SDS011;6521;50.498;8.474;2022-07-18T09:07:50;2.60;;;1.67;;
12906;SDS011;6521;50.498;8.474;2022-07-18T09:10:20;3.83;;;1.70;;
12906;SDS011;6521;50.498;8.474;2022-07-18T09:12:55;2.67;;;1.45;;
12906;SDS011;6521;50.498;8.474;2022-07-18T09:15:27;4.65;;;2.05;;
12906;SDS011;6521;50.498;8.474;2022-07-18T09:17:58;4.57;;;1.70;;
12906;SDS011;6521;50.498;8.474;2022-07-18T09:20:29;3.55;;;1.42;;
12906;SDS011;6521;50.498;8.474;2022-07-18T09:22:59;3.22;;;2.08;;
12906;SDS011;6521;50.498;8.474;2022-07-18T09:25:42;3.95;;;1.63;;
12906;SDS011;6521;50.498;8.474;2022-07-18T09:28:13;5.32;;;1.70;;
12906;SDS011;6521;50.498;8.474;2022-07-18T09:30:44;9.63;;;2.20;;
12906;SDS011;6521;50.498;8.474;2022-07-18T09:33:15;6.72;;;1.75;;
12906;SDS011;6521;50.498;8.474;2022-07-18T09:35:51;3.28;;;1.55;;
12906;SDS011;6521;50.498;8.474;2022-07-18T09:38:28;3.72;;;1.20;;
12906;SDS011;6521;50.498;8.474;2022-07-18T09:40:59;2.30;;;1.92;;
12906;SDS011;6521;50.498;8.474;2022-07-18T09:43:30;4.50;;;1.42;;
12906;SDS011;6521;50.498;8.474;2022-07-18T09:46:07;5.70;;;1.63;;
12906;SDS011;6521;50.498;8.474;2022-07-18T09:48:38;6.18;;;1.75;;
12906;SDS011;6521;50.498;8.474;2022-07-18T09:51:09;2.65;;;1.42;;
12906;SDS011;6521;50.498;8.474;2022-07-18T09:53:41;4.25;;;1.75;;
12906;SDS011;6521;50.498;8.474;2022-07-18T09:56:14;7.68;;;1.75;;
12906;SDS011;6521;50.498;8.474;2022-07-18T09:58:54;2.22;;;1.60;;
12906;SDS011;6521;50.498;8.474;2022-07-18T10:01:27;8.82;;;2.08;;
12906;SDS011;6521;50.498;8.474;2022-07-18T10:03:58;3.03;;;1.55;;
12906;SDS011;6521;50.498;8.474;2022-07-18T10:06:30;2.33;;;1.50;;
12906;SDS011;6521;50.498;8.474;2022-07-18T10:09:02;2.05;;;1.60;;
12906;SDS011;6521;50.498;8.474;2022-07-18T10:11:32;6.97;;;1.92;;
12906;SDS011;6521;50.498;8.474;2022-07-18T10:14:03;3.33;;;1.38;;
12906;SDS011;6521;50.498;8.474;2022-07-18T10:16:34;6.22;;;2.20;;
12906;SDS011;6521;50.498;8.474;2022-07-18T10:19:05;34.28;;;3.50;;
12906;SDS011;6521;50.498;8.474;2022-07-18T10:21:35;6.95;;;1.90;;
12906;SDS011;6521;50.498;8.474;2022-07-18T10:24:07;5.35;;;2.03;;
12906;SDS011;6521;50.498;8.474;2022-07-18T10:26:38;3.35;;;1.42;;
12906;SDS011;6521;50.498;8.474;2022-07-18T10:29:09;2.17;;;1.23;;
12906;SDS011;6521;50.498;8.474;2022-07-18T10:32:01;6.20;;;2.03;;
12906;SDS011;6521;50.498;8.474;2022-07-18T10:34:35;3.08;;;1.40;;
12906;SDS011;6521;50.498;8.474;2022-07-18T10:37:07;3.55;;;1.27;;
12906;SDS011;6521;50.498;8.474;2022-07-18T10:39:42;4.20;;;1.75;;
12906;SDS011;6521;50.498;8.474;2022-07-18T10:42:15;3.72;;;1.50;;
12906;SDS011;6521;50.498;8.474;2022-07-18T10:44:49;2.83;;;1.50;;
12906;SDS011;6521;50.498;8.474;2022-07-18T10:47:19;7.90;;;1.90;;
12906;SDS011;6521;50.498;8.474;2022-07-18T10:57:42;3.20;;;1.38;;
12906;SDS011;6521;50.498;8.474;2022-07-18T11:00:37;4.47;;;1.58;;
12906;SDS011;6521;50.498;8.474;2022-07-18T11:03:10;1.23;;;1.13;;
12906;SDS011;6521;50.498;8.474;2022-07-18T11:05:42;4.13;;;1.70;;
12906;SDS011;6521;50.498;8.474;2022-07-18T11:08:20;2.13;;;1.55;;
12906;SDS011;6521;50.498;8.474;2022-07-18T11:21:34;4.13;;;1.48;;
12906;SDS011;6521;50.498;8.474;2022-07-18T11:24:08;4.30;;;1.70;;
12906;SDS011;6521;50.498;8.474;2022-07-18T11:26:43;5.50;;;1.65;;
12906;SDS011;6521;50.498;8.474;2022-07-18T11:29:17;2.00;;;1.40;;
12906;SDS011;6521;50.498;8.474;2022-07-18T11:31:51;2.63;;;1.35;;
12906;SDS011;6521;50.498;8.474;2022-07-18T11:34:24;7.90;;;1.58;;
12906;SDS011;6521;50.498;8.474;2022-07-18T11:36:55;3.53;;;1.55;;
12906;SDS011;6521;50.498;8.474;2022-07-18T11:39:28;3.15;;;1.50;;
12906;SDS011;6521;50.498;8.474;2022-07-18T11:42:00;4.35;;;1.67;;
12906;SDS011;6521;50.498;8.474;2022-07-18T11:44:32;4.20;;;1.90;;
12906;SDS011;6521;50.498;8.474;2022-07-18T11:47:04;2.95;;;1.60;;
12906;SDS011;6521;50.498;8.474;2022-07-18T11:49:41;1.85;;;1.25;;
12906;SDS011;6521;50.498;8.474;2022-07-18T11:52:24;3.65;;;1.80;;
12906;SDS011;6521;50.498;8.474;2022-07-18T11:54:55;8.40;;;2.00;;
12906;SDS011;6521;50.498;8.474;2022-07-18T11:57:26;2.85;;;1.50;;
12906;SDS011;6521;50.498;8.474;2022-07-18T11:59:59;1.48;;;1.35;;
12906;SDS011;6521;50.498;8.474;2022-07-18T12:02:30;3.25;;;1.25;;
12906;SDS011;6521;50.498;8.474;2022-07-18T12:05:01;2.75;;;1.70;;
12906;SDS011;6521;50.498;8.474;2022-07-18T12:07:31;1.95;;;1.27;;
12906;SDS011;6521;50.498;8.474;2022-07-18T12:10:15;2.78;;;1.33;;
12906;SDS011;6521;50.498;8.474;2022-07-18T12:12:47;4.63;;;1.60;;
12906;SDS011;6521;50.498;8.474;2022-07-18T12:15:17;2.53;;;1.30;;
12906;SDS011;6521;50.498;8.474;2022-07-18T12:17:48;3.67;;;1.77;;
12906;SDS011;6521;50.498;8.474;2022-07-18T12:20:21;4.00;;;1.77;;
12906;SDS011;6521;50.498;8.474;2022-07-18T12:23:08;3.30;;;1.50;;
12906;SDS011;6521;50.498;8.474;2022-07-18T12:25:56;2.92;;;1.50;;
12906;SDS011;6521;50.498;8.474;2022-07-18T12:28:31;6.07;;;1.75;;
12906;SDS011;6521;50.498;8.474;2022-07-18T12:31:02;5.95;;;1.60;;
12906;SDS011;6521;50.498;8.474;2022-07-18T12:33:32;3.45;;;1.63;;
12906;SDS011;6521;50.498;8.474;2022-07-18T12:36:03;2.17;;;1.38;;
12906;SDS011;6521;50.498;8.474;2022-07-18T12:38:34;6.55;;;2.00;;
12906;SDS011;6521;50.498;8.474;2022-07-18T12:41:05;3.22;;;1.70;;
12906;SDS011;6521;50.498;8.474;2022-07-18T12:43:37;1.65;;;1.55;;
12906;SDS011;6521;50.498;8.474;2022-07-18T12:46:09;2.15;;;1.45;;
12906;SDS011;6521;50.498;8.474;2022-07-18T12:48:40;3.80;;;1.90;;
12906;SDS011;6521;50.498;8.474;2022-07-18T12:51:12;5.03;;;1.70;;
12906;SDS011;6521;50.498;8.474;2022-07-18T12:53:43;2.55;;;1.67;;
12906;SDS011;6521;50.498;8.474;2022-07-18T12:56:14;3.22;;;1.50;;
12906;SDS011;6521;50.498;8.474;2022-07-18T12:58:44;3.35;;;1.65;;
12906;SDS011;6521;50.498;8.474;2022-07-18T13:01:15;2.60;;;1.55;;
12906;SDS011;6521;50.498;8.474;2022-07-18T13:03:46;3.45;;;1.70;;
12906;SDS011;6521;50.498;8.474;2022-07-18T13:06:16;2.63;;;1.63;;
12906;SDS011;6521;50.498;8.474;2022-07-18T13:08:47;3.65;;;1.77;;
12906;SDS011;6521;50.498;8.474;2022-07-18T13:11:17;5.68;;;1.40;;
12906;SDS011;6521;50.498;8.474;2022-07-18T13:13:48;1.90;;;1.60;;
12906;SDS011;6521;50.498;8.474;2022-07-18T13:16:19;3.38;;;1.60;;
12906;SDS011;6521;50.498;8.474;2022-07-18T13:18:49;6.38;;;2.00;;
12906;SDS011;6521;50.498;8.474;2022-07-18T13:21:20;2.85;;;1.88;;
12906;SDS011;6521;50.498;8.474;2022-07-18T13:23:51;5.28;;;1.80;;
12906;SDS011;6521;50.498;8.474;2022-07-18T13:26:21;1.83;;;1.63;;
12906;SDS011;6521;50.498;8.474;2022-07-18T13:28:52;2.47;;;1.70;;
12906;SDS011;6521;50.498;8.474;2022-07-18T13:31:22;3.58;;;1.80;;
12906;SDS011;6521;50.498;8.474;2022-07-18T13:33:53;2.30;;;1.70;;
12906;SDS011;6521;50.498;8.474;2022-07-18T13:36:24;2.42;;;1.60;;
12906;SDS011;6521;50.498;8.474;2022-07-18T13:38:55;2.10;;;1.80;;
12906;SDS011;6521;50.498;8.474;2022-07-18T13:41:26;5.97;;;1.80;;
12906;SDS011;6521;50.498;8.474;2022-07-18T13:43:58;4.47;;;1.73;;
12906;SDS011;6521;50.498;8.474;2022-07-18T13:46:29;2.33;;;1.90;;
12906;SDS011;6521;50.498;8.474;2022-07-18T13:48:59;3.15;;;1.80;;
12906;SDS011;6521;50.498;8.474;2022-07-18T13:51:30;1.73;;;1.60;;
12906;SDS011;6521;50.498;8.474;2022-07-18T13:54:01;2.70;;;1.70;;
12906;SDS011;6521;50.498;8.474;2022-07-18T13:56:31;3.83;;;1.83;;
12906;SDS011;6521;50.498;8.474;2022-07-18T13:59:02;2.92;;;1.70;;
12906;SDS011;6521;50.498;8.474;2022-07-18T14:01:33;3.60;;;1.77;;
12906;SDS011;6521;50.498;8.474;2022-07-18T14:04:03;2.88;;;1.90;;
12906;SDS011;6521;50.498;8.474;2022-07-18T14:06:34;4.07;;;2.20;;
12906;SDS011;6521;50.498;8.474;2022-07-18T14:09:05;3.83;;;1.92;;
12906;SDS011;6521;50.498;8.474;2022-07-18T14:11:36;4.15;;;2.00;;
12906;SDS011;6521;50.498;8.474;2022-07-18T14:14:07;6.47;;;1.75;;
12906;SDS011;6521;50.498;8.474;2022-07-18T14:16:37;8.25;;;2.17;;
12906;SDS011;6521;50.498;8.474;2022-07-18T14:19:08;3.03;;;2.08;;
12906;SDS011;6521;50.498;8.474;2022-07-18T14:21:39;2.47;;;1.70;;
12906;SDS011;6521;50.498;8.474;2022-07-18T14:24:09;5.60;;;2.00;;
12906;SDS011;6521;50.498;8.474;2022-07-18T14:26:40;2.83;;;1.80;;
12906;SDS011;6521;50.498;8.474;2022-07-18T14:29:11;5.00;;;1.85;;
12906;SDS011;6521;50.498;8.474;2022-07-18T14:31:41;5.55;;;1.80;;
12906;SDS011;6521;50.498;8.474;2022-07-18T14:34:12;2.30;;;1.73;;
12906;SDS011;6521;50.498;8.474;2022-07-18T14:36:43;6.45;;;2.38;;
12906;SDS011;6521;50.498;8.474;2022-07-18T14:39:13;4.97;;;1.95;;
12906;SDS011;6521;50.498;8.474;2022-07-18T14:41:44;3.53;;;1.77;;
12906;SDS011;6521;50.498;8.474;2022-07-18T14:44:15;1.65;;;1.55;;
12906;SDS011;6521;50.498;8.474;2022-07-18T14:46:46;6.15;;;2.17;;
12906;SDS011;6521;50.498;8.474;2022-07-18T14:49:17;6.93;;;1.88;;
12906;SDS011;6521;50.498;8.474;2022-07-18T14:51:47;3.58;;;2.00;;
12906;SDS011;6521;50.498;8.474;2022-07-18T14:54:18;3.00;;;1.80;;
12906;SDS011;6521;50.498;8.474;2022-07-18T14:56:49;3.65;;;1.70;;
12906;SDS011;6521;50.498;8.474;2022-07-18T14:59:20;2.40;;;1.67;;
12906;SDS011;6521;50.498;8.474;2022-07-18T15:01:51;2.75;;;2.10;;
12906;SDS011;6521;50.498;8.474;2022-07-18T15:04:22;2.10;;;1.85;;
12906;SDS011;6521;50.498;8.474;2022-07-18T15:06:53;12.23;;;2.20;;
12906;SDS011;6521;50.498;8.474;2022-07-18T15:09:23;3.97;;;1.90;;
12906;SDS011;6521;50.498;8.474;2022-07-18T15:11:54;2.53;;;1.90;;
12906;SDS011;6521;50.498;8.474;2022-07-18T15:14:25;3.47;;;2.10;;
12906;SDS011;6521;50.498;8.474;2022-07-18T15:16:57;2.30;;;2.00;;
12906;SDS011;6521;50.498;8.474;2022-07-18T15:19:28;2.40;;;2.05;;
12906;SDS011;6521;50.498;8.474;2022-07-18T15:21:59;4.72;;;2.30;;
12906;SDS011;6521;50.498;8.474;2022-07-18T15:24:29;2.47;;;1.88;;
12906;SDS011;6521;50.498;8.474;2022-07-18T15:27:00;5.28;;;2.05;;
12906;SDS011;6521;50.498;8.474;2022-07-18T15:29:31;5.68;;;2.15;;
12906;SDS011;6521;50.498;8.474;2022-07-18T15:32:03;2.83;;;2.00;;
12906;SDS011;6521;50.498;8.474;2022-07-18T15:34:38;3.63;;;1.90;;
12906;SDS011;6521;50.498;8.474;2022-07-18T15:37:09;1.90;;;1.65;;
12906;SDS011;6521;50.498;8.474;2022-07-18T15:39:40;9.50;;;2.00;;
12906;SDS011;6521;50.498;8.474;2022-07-18T15:42:11;3.60;;;2.10;;
12906;SDS011;6521;50.498;8.474;2022-07-18T15:44:42;2.85;;;1.95;;